createdAt,value
2022-08-21T00:00:15.087Z,1012.2
2022-08-21T00:01:31.072Z,1012.2
2022-08-21T00:02:46.483Z,1012.2
2022-08-21T00:04:02.462Z,1012.1
2022-08-21T00:05:18.000Z,1012.1
2022-08-21T00:06:35.046Z,1012.1
2022-08-21T00:07:51.000Z,1012.1
2022-08-21T00:09:07.216Z,1012.1
2022-08-21T00:10:23.616Z,1012.1
2022-08-21T00:11:39.000Z,1012.2
2022-08-21T00:12:56.000Z,1012.1
2022-08-21T00:14:12.188Z,1012.1
2022-08-21T00:15:28.152Z,1012.1
2022-08-21T00:16:44.343Z,1012.1
2022-08-21T00:18:00.749Z,1012.1
2022-08-21T00:19:15.739Z,1012
2022-08-21T00:20:31.930Z,1012.1
2022-08-21T00:21:48.342Z,1012
2022-08-21T00:23:04.520Z,1012
2022-08-21T00:24:20.488Z,1012
2022-08-21T00:25:36.903Z,1012
2022-08-21T00:26:52.000Z,1012
2022-08-21T00:28:09.283Z,1012
2022-08-21T00:29:25.458Z,1012.1
2022-08-21T00:30:41.665Z,1012
2022-08-21T00:31:57.634Z,1012.1
2022-08-21T00:33:13.815Z,1012
2022-08-21T00:34:30.008Z,1012.1
2022-08-21T00:35:45.425Z,1012.1
2022-08-21T00:37:01.394Z,1012
2022-08-21T00:38:17.811Z,1012.1
2022-08-21T00:39:33.780Z,1012.1
2022-08-21T00:40:50.192Z,1012
2022-08-21T00:42:06.167Z,1012
2022-08-21T00:43:22.351Z,1012.1
2022-08-21T00:44:38.752Z,1012.1
2022-08-21T00:45:54.716Z,1012.1
2022-08-21T00:47:10.914Z,1012
2022-08-21T00:48:27.313Z,1012.1
2022-08-21T00:49:43.283Z,1012.1
2022-08-21T00:50:59.705Z,1012
2022-08-21T00:52:14.688Z,1012.1
2022-08-21T00:53:31.096Z,1012.1
2022-08-21T00:54:47.055Z,1012
2022-08-21T00:56:03.479Z,1012
2022-08-21T00:57:19.442Z,1012.1
2022-08-21T00:58:35.630Z,1012.1
2022-08-21T00:59:52.035Z,1012
2022-08-21T01:01:08.222Z,1012.1
2022-08-21T01:02:24.195Z,1012
2022-08-21T01:03:40.610Z,1012.1
2022-08-21T01:04:56.569Z,1012.1
2022-08-21T01:06:12.977Z,1012
2022-08-21T01:07:29.171Z,1012.1
2022-08-21T01:08:44.160Z,1012.1
2022-08-21T01:10:00.349Z,1012.1
2022-08-21T01:11:16.538Z,1012.1
2022-08-21T01:12:32.721Z,1012.1
2022-08-21T01:13:49.129Z,1012.1
2022-08-21T01:15:05.315Z,1012.1
2022-08-21T01:16:21.520Z,1012.1
2022-08-21T01:17:37.484Z,1012
2022-08-21T01:18:53.896Z,1012.1
2022-08-21T01:20:09.863Z,1012.1
2022-08-21T01:21:26.261Z,1012.1
2022-08-21T01:22:42.464Z,1012.2
2022-08-21T01:23:58.650Z,1012.2
2022-08-21T01:25:13.640Z,1012.2
2022-08-21T01:26:30.042Z,1012.1
2022-08-21T01:27:46.016Z,1012.1
2022-08-21T01:29:02.431Z,1012.1
2022-08-21T01:30:18.606Z,1012.2
2022-08-21T01:31:34.795Z,1012.1
2022-08-21T01:32:50.768Z,1012.1
2022-08-21T01:34:07.168Z,1012.1
2022-08-21T01:35:23.148Z,1012.2
2022-08-21T01:36:39.326Z,1012.2
2022-08-21T01:37:55.736Z,1012.2
2022-08-21T01:39:11.927Z,1012.2
2022-08-21T01:40:27.901Z,1012.2
2022-08-21T01:41:43.331Z,1012.1
2022-08-21T01:42:59.289Z,1012.1
2022-08-21T01:44:15.705Z,1012.1
2022-08-21T01:45:31.895Z,1012.1
2022-08-21T01:46:48.085Z,1012.1
2022-08-21T01:48:04.036Z,1012.2
2022-08-21T01:49:20.242Z,1012.1
2022-08-21T01:50:36.430Z,1012.1
2022-08-21T01:51:52.832Z,1012.2
2022-08-21T01:53:09.027Z,1012.1
2022-08-21T01:54:25.228Z,1012.1
2022-08-21T01:55:41.180Z,1012.1
2022-08-21T01:56:57.590Z,1012.1
2022-08-21T01:58:12.569Z,1012.1
2022-08-21T01:59:28.989Z,1012.2
2022-08-21T02:00:45.186Z,1012.1
2022-08-21T02:02:01.139Z,1012.1
2022-08-21T02:03:17.320Z,1012.1
2022-08-21T02:04:33.741Z,1012.1
2022-08-21T02:05:48.728Z,1012.1
2022-08-21T02:07:05.149Z,1012.2
2022-08-21T02:08:21.099Z,1012.2
2022-08-21T02:09:37.528Z,1012.1
2022-08-21T02:10:53.476Z,1012.2
2022-08-21T02:12:09.905Z,1012.1
2022-08-21T02:13:25.867Z,1012.1
2022-08-21T02:14:42.044Z,1012.2
2022-08-21T02:15:58.479Z,1012.1
2022-08-21T02:17:14.660Z,1012.1
2022-08-21T02:18:30.613Z,1012.1
2022-08-21T02:19:47.047Z,1012.1
2022-08-21T02:21:02.997Z,1012.1
2022-08-21T02:22:18.436Z,1012.2
2022-08-21T02:23:34.398Z,1012.1
2022-08-21T02:24:50.805Z,1012.1
2022-08-21T02:26:06.767Z,1012.1
2022-08-21T02:27:22.951Z,1012.1
2022-08-21T02:28:39.152Z,1012.1
2022-08-21T02:29:55.573Z,1012.1
2022-08-21T02:31:11.525Z,1012.1
2022-08-21T02:32:27.949Z,1012.1
2022-08-21T02:33:43.900Z,1012.1
2022-08-21T02:35:00.325Z,1012.1
2022-08-21T02:36:16.268Z,1012.1
2022-08-21T02:37:32.695Z,1012.1
2022-08-21T02:38:47.915Z,1012.1
2022-08-21T02:40:03.863Z,1012.1
2022-08-21T02:41:20.038Z,1012.1
2022-08-21T02:42:36.469Z,1012.1
2022-08-21T02:43:52.423Z,1012.1
2022-08-21T02:45:08.607Z,1012.1
2022-08-21T02:46:25.035Z,1012.1
2022-08-21T02:47:41.241Z,1012.1
2022-08-21T02:48:57.182Z,1012.1
2022-08-21T02:50:13.607Z,1012.1
2022-08-21T02:51:29.567Z,1012.1
2022-08-21T02:52:45.983Z,1012.1
2022-08-21T02:54:02.186Z,1012.1
2022-08-21T02:55:17.377Z,1012.1
2022-08-21T02:56:33.337Z,1012.1
2022-08-21T02:57:49.758Z,1012.1
2022-08-21T02:59:05.707Z,1012.1
2022-08-21T03:00:22.134Z,1012.1
2022-08-21T03:01:38.335Z,1012.1
2022-08-21T03:02:54.526Z,1012.1
2022-08-21T03:04:10.454Z,1012.1
2022-08-21T03:05:26.894Z,1012.1
2022-08-21T03:06:42.842Z,1012.1
2022-08-21T03:07:59.019Z,1012.1
2022-08-21T03:09:15.463Z,1012.1
2022-08-21T03:10:31.653Z,1012.1
2022-08-21T03:11:46.612Z,1012.1
2022-08-21T03:13:03.053Z,1012.1
2022-08-21T03:14:18.984Z,1012.1
2022-08-21T03:15:35.420Z,1012.1
2022-08-21T03:16:51.611Z,1012.1
2022-08-21T03:18:07.787Z,1012.1
2022-08-21T03:19:23.742Z,1012.1
2022-08-21T03:20:40.159Z,1012.1
2022-08-21T03:21:56.116Z,1012.1
2022-08-21T03:23:12.302Z,1012.1
2022-08-21T03:24:28.725Z,1012.1
2022-08-21T03:25:44.926Z,1012.1
2022-08-21T03:27:00.867Z,1012
2022-08-21T03:28:16.318Z,1012.1
2022-08-21T03:29:32.256Z,1012.1
2022-08-21T03:30:48.682Z,1012.1
2022-08-21T03:32:04.875Z,1012
2022-08-21T03:33:21.065Z,1012
2022-08-21T03:34:36.999Z,1012.1
2022-08-21T03:35:53.442Z,1012.1
2022-08-21T03:37:09.363Z,1012
2022-08-21T03:38:25.800Z,1012.1
2022-08-21T03:39:41.738Z,1012.1
2022-08-21T03:40:58.180Z,1012.1
2022-08-21T03:42:14.110Z,1012.1
2022-08-21T03:43:30.312Z,1012.1
2022-08-21T03:44:45.498Z,1012.1
2022-08-21T03:46:01.949Z,1012.1
2022-08-21T03:47:17.893Z,1012.1
2022-08-21T03:48:34.322Z,1012.1
2022-08-21T03:49:50.250Z,1012.1
2022-08-21T03:51:06.696Z,1012.1
2022-08-21T03:52:22.627Z,1012.1
2022-08-21T03:53:39.071Z,1012.1
2022-08-21T03:54:55.254Z,1012.1
2022-08-21T03:56:11.201Z,1012.1
2022-08-21T03:57:27.381Z,1012.1
2022-08-21T03:58:43.814Z,1012.1
2022-08-21T03:59:59.765Z,1012.2
2022-08-21T04:01:15.218Z,1012.1
2022-08-21T04:02:31.138Z,1012.2
2022-08-21T04:03:47.324Z,1012.2
2022-08-21T04:05:03.520Z,1012.1
2022-08-21T04:06:19.697Z,1012.2
2022-08-21T04:07:35.895Z,1012.2
2022-08-21T04:08:52.087Z,1012.2
2022-08-21T04:10:08.531Z,1012.2
2022-08-21T04:11:24.712Z,1012.3
2022-08-21T04:12:40.638Z,1012.3
2022-08-21T04:13:57.080Z,1012.3
2022-08-21T04:15:13.024Z,1012.3
2022-08-21T04:16:29.450Z,1012.3
2022-08-21T04:17:44.669Z,1012.3
2022-08-21T04:19:00.841Z,1012.3
2022-08-21T04:20:16.792Z,1012.3
2022-08-21T04:21:33.219Z,1012.3
2022-08-21T04:22:49.153Z,1012.3
2022-08-21T04:24:05.590Z,1012.3
2022-08-21T04:25:21.787Z,1012.3
2022-08-21T04:26:37.982Z,1012.2
2022-08-21T04:27:53.900Z,1012.2
2022-08-21T04:29:10.357Z,1012.2
2022-08-21T04:30:26.269Z,1012.3
2022-08-21T04:31:42.724Z,1012.3
2022-08-21T04:32:58.913Z,1012.3
2022-08-21T04:34:13.864Z,1012.3
2022-08-21T04:35:30.035Z,1012.2
2022-08-21T04:36:46.483Z,1012.3
2022-08-21T04:38:02.415Z,1012.2
2022-08-21T04:39:18.859Z,1012.2
2022-08-21T04:40:35.044Z,1012.2
2022-08-21T04:41:51.241Z,1012.2
2022-08-21T04:43:07.170Z,1012.2
2022-08-21T04:44:23.609Z,1012.2
2022-08-21T04:45:39.537Z,1012.2
2022-08-21T04:46:55.737Z,1012.3
2022-08-21T04:48:12.184Z,1012.2
2022-08-21T04:49:28.367Z,1012.3
2022-08-21T04:50:43.304Z,1012.3
2022-08-21T04:51:59.749Z,1012.3
2022-08-21T04:53:15.669Z,1012.3
2022-08-21T04:54:31.861Z,1012.3
2022-08-21T04:55:48.325Z,1012.3
2022-08-21T04:57:04.513Z,1012.3
2022-08-21T04:58:20.427Z,1012.2
2022-08-21T04:59:36.624Z,1012.2
2022-08-21T05:00:52.808Z,1012.3
2022-08-21T05:02:09.262Z,1012.3
2022-08-21T05:03:25.437Z,1012.3
2022-08-21T05:04:41.618Z,1012.4
2022-08-21T05:05:57.560Z,1012.3
2022-08-21T05:07:12.746Z,1012.3
2022-08-21T05:08:28.943Z,1012.3
2022-08-21T05:09:45.397Z,1012.4
2022-08-21T05:11:01.578Z,1012.4
2022-08-21T05:12:17.505Z,1012.4
2022-08-21T05:13:33.701Z,1012.4
2022-08-21T05:14:49.865Z,1012.3
2022-08-21T05:16:06.073Z,1012.4
2022-08-21T05:17:22.513Z,1012.4
2022-08-21T05:18:38.714Z,1012.4
2022-08-21T05:19:54.886Z,1012.5
2022-08-21T05:21:10.803Z,1012.4
2022-08-21T05:22:27.260Z,1012.4
2022-08-21T05:23:42.193Z,1012.4
2022-08-21T05:24:58.648Z,1012.4
2022-08-21T05:26:14.847Z,1012.4
2022-08-21T05:27:31.026Z,1012.5
2022-08-21T05:28:46.951Z,1012.4
2022-08-21T05:30:03.397Z,1012.4
2022-08-21T05:31:19.334Z,1012.5
2022-08-21T05:32:35.776Z,1012.5
2022-08-21T05:33:51.969Z,1012.5
2022-08-21T05:35:08.158Z,1012.5
2022-08-21T05:36:24.069Z,1012.5
2022-08-21T05:37:40.266Z,1012.5
2022-08-21T05:38:56.457Z,1012.5
2022-08-21T05:40:11.921Z,1012.5
2022-08-21T05:41:28.108Z,1012.5
2022-08-21T05:42:44.298Z,1012.5
2022-08-21T05:44:00.206Z,1012.5
2022-08-21T05:45:16.678Z,1012.5
2022-08-21T05:46:32.595Z,1012.5
2022-08-21T05:47:49.055Z,1012.5
2022-08-21T05:49:04.961Z,1012.5
2022-08-21T05:50:21.137Z,1012.5
2022-08-21T05:51:37.613Z,1012.5
2022-08-21T05:52:53.804Z,1012.5
2022-08-21T05:54:09.974Z,1012.5
2022-08-21T05:55:26.170Z,1012.5
2022-08-21T05:56:41.366Z,1012.5
2022-08-21T05:57:57.567Z,1012.5
2022-08-21T05:59:13.751Z,1012.5
2022-08-21T06:00:29.930Z,1012.5
2022-08-21T06:01:46.124Z,1012.5
2022-08-21T06:03:02.317Z,1012.6
2022-08-21T06:04:18.504Z,1012.6
2022-08-21T06:05:34.693Z,1012.5
2022-08-21T06:06:50.867Z,1012.5
2022-08-21T06:08:07.057Z,1012.5
2022-08-21T06:09:23.233Z,1012.6
2022-08-21T06:10:39.438Z,1012.6
2022-08-21T06:11:55.621Z,1012.6
2022-08-21T06:13:10.819Z,1012.6
2022-08-21T06:14:26.996Z,1012.6
2022-08-21T06:15:43.193Z,1012.6
2022-08-21T06:16:59.371Z,1012.6
2022-08-21T06:18:15.574Z,1012.6
2022-08-21T06:19:31.753Z,1012.6
2022-08-21T06:20:46.981Z,1012.6
2022-08-21T06:22:03.141Z,1012.6
2022-08-21T06:23:19.350Z,1012.6
2022-08-21T06:24:35.532Z,1012.6
2022-08-21T06:25:51.717Z,1012.6
2022-08-21T06:27:07.907Z,1012.6
2022-08-21T06:28:24.077Z,1012.7
2022-08-21T06:29:40.282Z,1012.7
2022-08-21T06:30:56.469Z,1012.6
2022-08-21T06:32:12.658Z,1012.6
2022-08-21T06:33:28.854Z,1012.6
2022-08-21T06:34:45.043Z,1012.7
2022-08-21T06:36:01.226Z,1012.6
2022-08-21T06:37:16.416Z,1012.7
2022-08-21T06:38:32.603Z,1012.7
2022-08-21T06:39:48.782Z,1012.7
2022-08-21T06:41:04.984Z,1012.7
2022-08-21T06:42:21.182Z,1012.7
2022-08-21T06:43:37.351Z,1012.7
2022-08-21T06:44:53.555Z,1012.7
2022-08-21T06:46:09.741Z,1012.7
2022-08-21T06:47:25.918Z,1012.6
2022-08-21T06:48:42.110Z,1012.6
2022-08-21T06:49:58.296Z,1012.6
2022-08-21T06:51:14.479Z,1012.7
2022-08-21T06:52:30.649Z,1012.6
2022-08-21T06:53:45.866Z,1012.7
2022-08-21T06:55:02.047Z,1012.7
2022-08-21T06:56:18.256Z,1012.7
2022-08-21T06:57:34.435Z,1012.7
2022-08-21T06:58:50.632Z,1012.7
2022-08-21T07:00:06.800Z,1012.7
2022-08-21T07:01:22.997Z,1012.7
2022-08-21T07:02:39.171Z,1012.6
2022-08-21T07:03:55.371Z,1012.7
2022-08-21T07:05:11.556Z,1012.6
2022-08-21T07:06:27.742Z,1012.7
2022-08-21T07:07:43.917Z,1012.7
2022-08-21T07:09:00.126Z,1012.6
2022-08-21T07:10:15.309Z,1012.6
2022-08-21T07:11:31.519Z,1012.7
2022-08-21T07:12:47.693Z,1012.6
2022-08-21T07:14:03.899Z,1012.6
2022-08-21T07:15:20.049Z,1012.6
2022-08-21T07:16:36.267Z,1012.6
2022-08-21T07:17:52.424Z,1012.7
2022-08-21T07:19:08.644Z,1012.6
2022-08-21T07:20:24.835Z,1012.6
2022-08-21T07:21:41.023Z,1012.7
2022-08-21T07:22:57.187Z,1012.6
2022-08-21T07:24:13.399Z,1012.6
2022-08-21T07:25:29.558Z,1012.6
2022-08-21T07:26:44.771Z,1012.6
2022-08-21T07:28:00.964Z,1012.6
2022-08-21T07:29:17.159Z,1012.6
2022-08-21T07:30:33.326Z,1012.6
2022-08-21T07:31:49.511Z,1012.6
2022-08-21T07:33:05.701Z,1012.6
2022-08-21T07:34:21.911Z,1012.5
2022-08-21T07:35:38.072Z,1012.5
2022-08-21T07:36:54.282Z,1012.5
2022-08-21T07:38:10.452Z,1012.5
2022-08-21T07:39:26.664Z,1012.5
2022-08-21T07:40:42.822Z,1012.6
2022-08-21T07:41:59.020Z,1012.5
2022-08-21T07:43:14.234Z,1012.5
2022-08-21T07:44:30.426Z,1012.5
2022-08-21T07:45:46.602Z,1012.5
2022-08-21T07:47:02.768Z,1012.6
2022-08-21T07:48:18.963Z,1012.5
2022-08-21T07:49:35.160Z,1012.5
2022-08-21T07:50:51.363Z,1012.5
2022-08-21T07:52:07.540Z,1012.5
2022-08-21T07:53:23.695Z,1012.6
2022-08-21T07:54:39.920Z,1012.6
2022-08-21T07:55:56.085Z,1012.5
2022-08-21T07:57:12.275Z,1012.5
2022-08-21T07:58:28.491Z,1012.5
2022-08-21T07:59:43.692Z,1012.5
2022-08-21T08:00:59.844Z,1012.5
2022-08-21T08:02:16.058Z,1012.5
2022-08-21T08:03:32.225Z,1012.5
2022-08-21T08:04:48.427Z,1012.5
2022-08-21T08:06:04.603Z,1012.5
2022-08-21T08:07:20.815Z,1012.5
2022-08-21T08:08:36.977Z,1012.6
2022-08-21T08:09:53.163Z,1012.5
2022-08-21T08:11:09.339Z,1012.5
2022-08-21T08:12:25.557Z,1012.5
2022-08-21T08:13:41.749Z,1012.5
2022-08-21T08:14:57.938Z,1012.5
2022-08-21T08:16:13.147Z,1012.5
2022-08-21T08:17:29.318Z,1012.6
2022-08-21T08:18:45.470Z,1012.5
2022-08-21T08:20:01.692Z,1012.5
2022-08-21T08:21:17.885Z,1012.5
2022-08-21T08:22:34.033Z,1012.5
2022-08-21T08:23:50.237Z,1012.5
2022-08-21T08:25:06.454Z,1012.6
2022-08-21T08:26:22.627Z,1012.6
2022-08-21T08:27:38.830Z,1012.6
2022-08-21T08:28:55.018Z,1012.6
2022-08-21T08:30:11.192Z,1012.6
2022-08-21T08:31:27.358Z,1012.7
2022-08-21T08:32:42.580Z,1012.6
2022-08-21T08:33:58.738Z,1012.6
2022-08-21T08:35:14.921Z,1012.6
2022-08-21T08:36:31.142Z,1012.5
2022-08-21T08:37:47.335Z,1012.6
2022-08-21T08:39:03.495Z,1012.6
2022-08-21T08:40:19.722Z,1012.6
2022-08-21T08:41:35.856Z,1012.5
2022-08-21T08:42:52.083Z,1012.6
2022-08-21T08:44:08.283Z,1012.6
2022-08-21T08:45:24.471Z,1012.6
2022-08-21T08:46:40.610Z,1012.6
2022-08-21T08:47:56.833Z,1012.6
2022-08-21T08:49:11.995Z,1012.5
2022-08-21T08:50:28.230Z,1012.6
2022-08-21T08:51:44.410Z,1012.6
2022-08-21T08:53:00.610Z,1012.6
2022-08-21T08:54:16.757Z,1012.5
2022-08-21T08:55:32.980Z,1012.5
2022-08-21T08:56:49.126Z,1012.5
2022-08-21T08:58:05.358Z,1012.5
2022-08-21T08:59:21.500Z,1012.5
2022-08-21T09:00:37.720Z,1012.4
2022-08-21T09:01:53.871Z,1012.5
2022-08-21T09:03:10.054Z,1012.4
2022-08-21T09:04:26.257Z,1012.5
2022-08-21T09:05:41.486Z,1012.4
2022-08-21T09:06:57.676Z,1012.4
2022-08-21T09:08:13.864Z,1012.4
2022-08-21T09:09:30.022Z,1012.5
2022-08-21T09:10:46.234Z,1012.5
2022-08-21T09:12:02.395Z,1012.4
2022-08-21T09:13:18.570Z,1012.4
2022-08-21T09:14:34.762Z,1012.4
2022-08-21T09:15:50.945Z,1012.4
2022-08-21T09:17:07.140Z,1012.4
2022-08-21T09:18:23.367Z,1012.4
2022-08-21T09:19:39.511Z,1012.4
2022-08-21T09:20:55.741Z,1012.4
2022-08-21T09:22:10.954Z,1012.3
2022-08-21T09:23:27.143Z,1012.4
2022-08-21T09:24:43.269Z,1012.4
2022-08-21T09:25:59.000Z,1012.4
2022-08-21T09:27:15.691Z,1012.4
2022-08-21T09:28:31.880Z,1012.4
2022-08-21T09:29:48.067Z,1012.4
2022-08-21T09:31:04.260Z,1012.4
2022-08-21T09:32:20.393Z,1012.4
2022-08-21T09:33:36.594Z,1012.4
2022-08-21T09:34:52.781Z,1012.3
2022-08-21T09:36:09.016Z,1012.4
2022-08-21T09:37:25.160Z,1012.4
2022-08-21T09:38:40.355Z,1012.4
2022-08-21T09:39:56.530Z,1012.5
2022-08-21T09:41:12.775Z,1012.4
2022-08-21T09:42:28.909Z,1012.4
2022-08-21T09:43:45.154Z,1012.4
2022-08-21T09:45:01.330Z,1012.4
2022-08-21T09:46:17.528Z,1012.5
2022-08-21T09:47:33.670Z,1012.4
2022-08-21T09:48:49.899Z,1012.4
2022-08-21T09:50:06.033Z,1012.4
2022-08-21T09:51:22.282Z,1012.4
2022-08-21T09:52:38.470Z,1012.4
2022-08-21T09:53:54.646Z,1012.4
2022-08-21T09:55:09.810Z,1012.4
2022-08-21T09:56:25.997Z,1012.4
2022-08-21T09:57:42.182Z,1012.4
2022-08-21T09:58:58.414Z,1012.4
2022-08-21T10:01:30.786Z,1012.4
2022-08-21T10:02:46.918Z,1012.3
2022-08-21T10:04:03.000Z,1012.4
2022-08-21T10:05:19.000Z,1012.4
2022-08-21T10:06:35.544Z,1012.4
2022-08-21T10:07:51.720Z,1012.4
2022-08-21T10:09:07.911Z,1012.4
2022-08-21T10:10:24.096Z,1012.4
2022-08-21T10:11:39.303Z,1012.4
2022-08-21T10:12:55.450Z,1012.4
2022-08-21T10:14:11.690Z,1012.4
2022-08-21T10:15:27.823Z,1012.4
2022-08-21T10:16:44.053Z,1012.4
2022-08-21T10:18:00.191Z,1012.4
2022-08-21T10:19:16.440Z,1012.4
2022-08-21T10:20:32.619Z,1012.4
2022-08-21T10:21:48.805Z,1012.4
2022-08-21T10:23:05.002Z,1012.5
2022-08-21T10:24:21.179Z,1012.5
2022-08-21T10:25:37.316Z,1012.4
2022-08-21T10:26:53.547Z,1012.5
2022-08-21T10:28:08.701Z,1012.4
2022-08-21T10:29:24.892Z,1012.5
2022-08-21T10:30:41.127Z,1012.4
2022-08-21T10:31:57.316Z,1012.4
2022-08-21T10:33:13.455Z,1012.4
2022-08-21T10:34:29.703Z,1012.4
2022-08-21T10:35:44.913Z,1012.5
2022-08-21T10:37:01.102Z,1012.4
2022-08-21T10:38:17.277Z,1012.5
2022-08-21T10:39:33.466Z,1012.4
2022-08-21T10:40:49.653Z,1012.4
2022-08-21T10:42:05.788Z,1012.4
2022-08-21T10:43:21.981Z,1012.4
2022-08-21T10:44:38.223Z,1012.4
2022-08-21T10:45:54.411Z,1012.4
2022-08-21T10:47:10.587Z,1012.4
2022-08-21T10:48:26.731Z,1012.4
2022-08-21T10:49:42.975Z,1012.4
2022-08-21T10:50:59.166Z,1012.5
2022-08-21T10:52:14.368Z,1012.4
2022-08-21T10:53:30.483Z,1012.4
2022-08-21T10:54:46.680Z,1012.4
2022-08-21T10:56:02.860Z,1012.4
2022-08-21T10:57:19.115Z,1012.4
2022-08-21T10:58:35.288Z,1012.4
2022-08-21T10:59:51.476Z,1012.4
2022-08-21T11:01:07.619Z,1012.4
2022-08-21T11:02:23.859Z,1012.4
2022-08-21T11:03:39.988Z,1012.4
2022-08-21T11:04:56.237Z,1012.5
2022-08-21T11:06:12.367Z,1012.5
2022-08-21T11:07:28.612Z,1012.4
2022-08-21T11:08:43.753Z,1012.5
2022-08-21T11:10:00.003Z,1012.4
2022-08-21T11:11:16.197Z,1012.4
2022-08-21T11:12:32.373Z,1012.5
2022-08-21T11:13:48.567Z,1012.4
2022-08-21T11:15:04.758Z,1012.5
2022-08-21T11:16:20.941Z,1012.4
2022-08-21T11:17:37.136Z,1012.3
2022-08-21T11:18:53.258Z,1012.3
2022-08-21T11:20:09.506Z,1012.5
2022-08-21T11:21:25.694Z,1012.4
2022-08-21T11:22:41.881Z,1012.4
2022-08-21T11:23:58.073Z,1012.4
2022-08-21T11:25:13.277Z,1012.4
2022-08-21T11:26:29.457Z,1012.4
2022-08-21T11:27:45.634Z,1012.5
2022-08-21T11:29:01.834Z,1012.4
2022-08-21T11:30:18.010Z,1012.4
2022-08-21T11:31:34.214Z,1012.4
2022-08-21T11:32:50.398Z,1012.4
2022-08-21T11:34:06.505Z,1012.4
2022-08-21T11:35:22.776Z,1012.4
2022-08-21T11:36:38.951Z,1012.3
2022-08-21T11:37:55.074Z,1012.4
2022-08-21T11:39:11.333Z,1012.3
2022-08-21T11:40:27.442Z,1012.4
2022-08-21T11:41:42.647Z,1012.4
2022-08-21T11:42:58.917Z,1012.3
2022-08-21T11:44:15.090Z,1012.2
2022-08-21T11:45:31.283Z,1012.3
2022-08-21T11:46:47.408Z,1012.3
2022-08-21T11:48:03.665Z,1012.3
2022-08-21T11:49:19.779Z,1012.3
2022-08-21T11:50:36.030Z,1012.2
2022-08-21T11:51:52.152Z,1012.2
2022-08-21T11:53:08.346Z,1012.2
2022-08-21T11:54:24.590Z,1012.3
2022-08-21T11:55:40.789Z,1012.2
2022-08-21T11:56:56.905Z,1012.2
2022-08-21T11:58:12.110Z,1012.2
2022-08-21T11:59:28.297Z,1012.2
2022-08-21T12:00:44.544Z,1012.1
2022-08-21T12:02:00.733Z,1012.2
2022-08-21T12:03:16.919Z,1012.3
2022-08-21T12:04:33.112Z,1012.2
2022-08-21T12:05:49.302Z,1012.2
2022-08-21T12:07:05.488Z,1012.2
2022-08-21T12:08:21.687Z,1012.1
2022-08-21T12:09:37.872Z,1012.1
2022-08-21T12:10:53.983Z,1012.1
2022-08-21T12:12:10.157Z,1012.1
2022-08-21T12:13:26.430Z,1012.1
2022-08-21T12:14:41.629Z,1012.1
2022-08-21T12:15:57.000Z,1012
2022-08-21T12:17:13.929Z,1012.1
2022-08-21T12:18:30.199Z,1012
2022-08-21T12:19:46.300Z,1012.1
2022-08-21T12:21:02.564Z,1012
2022-08-21T12:22:18.750Z,1012.1
2022-08-21T12:23:34.877Z,1012
2022-08-21T12:24:51.059Z,1012
2022-08-21T12:26:07.241Z,1012
2022-08-21T12:27:23.430Z,1011.9
2022-08-21T12:28:39.701Z,1012
2022-08-21T12:29:55.886Z,1012.1
2022-08-21T12:31:11.082Z,1012
2022-08-21T12:32:27.203Z,1012
2022-08-21T12:33:43.462Z,1012
2022-08-21T12:34:59.664Z,1012
2022-08-21T12:36:15.761Z,1012
2022-08-21T12:37:31.944Z,1012
2022-08-21T12:38:48.220Z,1012.1
2022-08-21T12:40:04.331Z,1012
2022-08-21T12:41:20.600Z,1012
2022-08-21T12:42:36.700Z,1012
2022-08-21T12:43:52.978Z,1011.9
2022-08-21T12:45:09.149Z,1011.9
2022-08-21T12:46:25.340Z,1012
2022-08-21T12:47:40.557Z,1011.9
2022-08-21T12:48:56.661Z,1011.8
2022-08-21T12:50:12.849Z,1011.8
2022-08-21T12:51:29.117Z,1011.9
2022-08-21T12:52:45.318Z,1011.9
2022-08-21T12:54:01.496Z,1011.9
2022-08-21T12:55:17.687Z,1011.9
2022-08-21T12:56:33.872Z,1011.9
2022-08-21T12:57:49.989Z,1011.8
2022-08-21T12:59:06.252Z,1011.9
2022-08-21T13:00:22.448Z,1011.8
2022-08-21T13:01:38.538Z,1011.8
2022-08-21T13:02:54.735Z,1011.9
2022-08-21T13:04:09.943Z,1011.8
2022-08-21T13:05:26.125Z,1011.8
2022-08-21T13:06:42.413Z,1011.9
2022-08-21T13:07:58.518Z,1011.9
2022-08-21T13:09:14.781Z,1011.9
2022-08-21T13:10:30.883Z,1011.8
2022-08-21T13:11:47.073Z,1011.9
2022-08-21T13:13:03.366Z,1011.8
2022-08-21T13:14:19.459Z,1011.8
2022-08-21T13:15:35.741Z,1011.9
2022-08-21T13:16:51.923Z,1011.9
2022-08-21T13:18:08.119Z,1011.9
2022-08-21T13:19:24.307Z,1011.9
2022-08-21T13:20:39.416Z,1011.9
2022-08-21T13:21:55.704Z,1011.8
2022-08-21T13:23:11.896Z,1011.8
2022-08-21T13:24:28.085Z,1011.9
2022-08-21T13:25:44.261Z,1011.8
2022-08-21T13:27:00.361Z,1011.8
2022-08-21T13:28:16.546Z,1011.9
2022-08-21T13:29:32.841Z,1011.9
2022-08-21T13:30:49.030Z,1011.9
2022-08-21T13:32:05.207Z,1011.9
2022-08-21T13:33:21.408Z,1011.9
2022-08-21T13:34:37.594Z,1011.9
2022-08-21T13:35:53.788Z,1011.9
2022-08-21T13:37:08.993Z,1011.8
2022-08-21T13:38:25.179Z,1011.9
2022-08-21T13:39:41.273Z,1011.8
2022-08-21T13:40:57.558Z,1011.8
2022-08-21T13:42:13.748Z,1011.9
2022-08-21T13:43:29.837Z,1011.9
2022-08-21T13:44:46.124Z,1011.8
2022-08-21T13:46:02.311Z,1011.8
2022-08-21T13:47:18.501Z,1011.9
2022-08-21T13:48:34.590Z,1011.9
2022-08-21T13:49:50.882Z,1011.8
2022-08-21T13:51:07.000Z,1011.9
2022-08-21T13:52:23.171Z,1011.9
2022-08-21T13:53:38.472Z,1011.9
2022-08-21T13:54:54.657Z,1011.8
2022-08-21T13:56:10.851Z,1011.8
2022-08-21T13:57:27.026Z,1011.8
2022-08-21T13:58:43.226Z,1011.8
2022-08-21T13:59:59.403Z,1011.8
2022-08-21T14:01:15.508Z,1011.8
2022-08-21T14:02:31.789Z,1011.8
2022-08-21T14:03:47.985Z,1011.8
2022-08-21T14:05:04.075Z,1011.8
2022-08-21T14:06:20.265Z,1011.8
2022-08-21T14:07:36.556Z,1011.7
2022-08-21T14:08:52.731Z,1011.8
2022-08-21T14:10:07.949Z,1011.7
2022-08-21T14:11:24.142Z,1011.8
2022-08-21T14:12:40.212Z,1011.7
2022-08-21T14:13:56.000Z,1011.7
2022-08-21T14:15:12.697Z,1011.8
2022-08-21T14:16:28.884Z,1011.7
2022-08-21T14:17:44.968Z,1011.7
2022-08-21T14:19:01.275Z,1011.7
2022-08-21T14:20:17.463Z,1011.6
2022-08-21T14:21:33.651Z,1011.7
2022-08-21T14:22:49.841Z,1011.7
2022-08-21T14:24:06.032Z,1011.7
2022-08-21T14:25:22.223Z,1011.7
2022-08-21T14:26:37.414Z,1011.8
2022-08-21T14:27:53.620Z,1011.7
2022-08-21T14:29:09.687Z,1011.8
2022-08-21T14:30:25.979Z,1011.8
2022-08-21T14:31:42.170Z,1011.7
2022-08-21T14:32:58.374Z,1011.8
2022-08-21T14:34:14.562Z,1011.7
2022-08-21T14:35:30.739Z,1011.7
2022-08-21T14:36:46.932Z,1011.7
2022-08-21T14:38:03.124Z,1011.7
2022-08-21T14:39:19.317Z,1011.7
2022-08-21T14:40:35.499Z,1011.7
2022-08-21T14:41:51.694Z,1011.8
2022-08-21T14:43:06.798Z,1011.7
2022-08-21T14:44:22.985Z,1011.8
2022-08-21T14:45:39.283Z,1011.8
2022-08-21T14:46:55.456Z,1011.8
2022-08-21T14:48:11.541Z,1011.7
2022-08-21T14:49:27.846Z,1011.8
2022-08-21T14:50:42.959Z,1011.8
2022-08-21T14:51:59.145Z,1011.8
2022-08-21T14:53:15.431Z,1011.8
2022-08-21T14:54:31.628Z,1011.9
2022-08-21T14:55:47.804Z,1011.8
2022-08-21T14:57:04.007Z,1011.8
2022-08-21T14:58:20.201Z,1011.8
2022-08-21T14:59:36.268Z,1011.8
2022-08-21T15:00:52.575Z,1011.8
2022-08-21T15:02:08.767Z,1011.8
2022-08-21T15:03:24.943Z,1011.9
2022-08-21T15:04:41.131Z,1011.9
2022-08-21T15:05:57.336Z,1011.8
2022-08-21T15:07:12.427Z,1011.8
2022-08-21T15:08:28.611Z,1011.9
2022-08-21T15:09:44.913Z,1011.8
2022-08-21T15:11:01.095Z,1011.8
2022-08-21T15:12:17.190Z,1011.8
2022-08-21T15:13:33.484Z,1011.8
2022-08-21T15:14:49.674Z,1011.9
2022-08-21T15:16:05.857Z,1011.9
2022-08-21T15:17:22.051Z,1011.9
2022-08-21T15:18:38.238Z,1011.8
2022-08-21T15:19:54.435Z,1011.9
2022-08-21T15:21:10.628Z,1011.9
2022-08-21T15:22:26.698Z,1011.9
2022-08-21T15:23:42.013Z,1011.8
2022-08-21T15:24:58.195Z,1011.8
2022-08-21T15:26:14.393Z,1011.8
2022-08-21T15:27:30.586Z,1011.8
2022-08-21T15:28:46.772Z,1011.8
2022-08-21T15:30:02.959Z,1011.8
2022-08-21T15:31:19.155Z,1011.9
2022-08-21T15:32:35.339Z,1011.8
2022-08-21T15:33:51.412Z,1011.8
2022-08-21T15:35:07.714Z,1011.8
2022-08-21T15:36:23.910Z,1011.8
2022-08-21T15:37:40.101Z,1011.8
2022-08-21T15:38:56.295Z,1011.8
2022-08-21T15:40:11.499Z,1011.8
2022-08-21T15:41:27.687Z,1011.8
2022-08-21T15:42:43.876Z,1011.8
2022-08-21T15:44:00.064Z,1011.8
2022-08-21T15:45:16.259Z,1011.8
2022-08-21T15:46:32.316Z,1011.9
2022-08-21T15:47:48.625Z,1011.8
2022-08-21T15:49:04.815Z,1011.9
2022-08-21T15:50:21.014Z,1011.9
2022-08-21T15:51:37.194Z,1011.9
2022-08-21T15:52:53.381Z,1011.9
2022-08-21T15:54:09.580Z,1011.8